createdAt,value
2018-09-16T00:01:41.985Z,14.11
2018-09-16T00:04:18.790Z,14.10
2018-09-16T00:06:47.160Z,14.11
2018-09-16T00:09:15.720Z,14.02
2018-09-16T00:11:44.193Z,13.97
2018-09-16T00:14:12.608Z,13.97
2018-09-16T00:16:42.135Z,13.93
2018-09-16T00:19:10.686Z,13.90
2018-09-16T00:21:39.460Z,13.95
2018-09-16T00:24:08.036Z,13.91
2018-09-16T00:26:36.421Z,13.83
2018-09-16T00:29:04.891Z,13.77
2018-09-16T00:31:33.615Z,13.72
2018-09-16T00:34:02.002Z,13.74
2018-09-16T00:36:36.486Z,13.70
2018-09-16T00:39:07.438Z,13.69
2018-09-16T00:41:35.827Z,13.57
2018-09-16T00:44:04.524Z,13.59
2018-09-16T00:46:47.017Z,13.56
2018-09-16T00:49:15.339Z,13.48
2018-09-16T00:51:43.736Z,13.48
2018-09-16T00:54:12.122Z,13.45
2018-09-16T00:56:40.535Z,13.45
2018-09-16T00:59:09.177Z,13.47
2018-09-16T01:01:37.715Z,13.49
2018-09-16T01:04:06.232Z,13.49
2018-09-16T01:06:38.455Z,13.51
2018-09-16T01:09:13.186Z,13.54
2018-09-16T01:11:41.599Z,13.54
2018-09-16T01:14:10.332Z,13.57
2018-09-16T01:16:40.015Z,13.59
2018-09-16T01:19:09.082Z,13.55
2018-09-16T01:21:38.090Z,13.59
2018-09-16T01:24:06.795Z,13.59
2018-09-16T01:26:35.712Z,13.52
2018-09-16T01:29:04.325Z,13.56
2018-09-16T01:31:32.837Z,13.62
2018-09-16T01:34:01.245Z,13.57
2018-09-16T01:36:29.706Z,13.65
2018-09-16T01:38:58.059Z,13.66
2018-09-16T01:41:26.669Z,13.63
2018-09-16T01:43:55.123Z,13.66
2018-09-16T01:46:26.951Z,13.73
2018-09-16T01:48:55.442Z,13.76
2018-09-16T01:51:23.898Z,13.74
2018-09-16T01:53:52.248Z,13.76
2018-09-16T01:56:20.699Z,13.74
2018-09-16T01:58:49.174Z,13.78
2018-09-16T02:01:17.637Z,13.83
2018-09-16T02:03:46.215Z,13.77
2018-09-16T02:06:16.699Z,13.70
2018-09-16T02:08:45.057Z,13.66
2018-09-16T02:11:13.565Z,13.62
2018-09-16T02:13:42.082Z,13.56
2018-09-16T02:16:10.527Z,13.54
2018-09-16T02:18:38.945Z,13.45
2018-09-16T02:21:07.116Z,13.44
2018-09-16T02:23:35.379Z,13.40
2018-09-16T02:26:07.386Z,13.40
2018-09-16T02:28:35.447Z,13.37
2018-09-16T02:31:03.459Z,13.27
2018-09-16T02:33:31.651Z,13.26
2018-09-16T02:35:59.803Z,13.17
2018-09-16T02:38:27.892Z,13.12
2018-09-16T02:40:56.021Z,13.31
2018-09-16T02:43:24.048Z,13.16
2018-09-16T02:45:57.541Z,13.00
2018-09-16T02:48:25.650Z,12.89
2018-09-16T02:50:53.691Z,12.81
2018-09-16T02:53:21.904Z,12.75
2018-09-16T02:55:50.319Z,12.68
2018-09-16T02:58:18.395Z,12.61
2018-09-16T03:00:46.594Z,12.62
2018-09-16T03:03:14.673Z,12.58
2018-09-16T03:05:49.464Z,12.57
2018-09-16T03:08:18.623Z,12.58
2018-09-16T03:10:46.797Z,12.61
2018-09-16T03:13:15.441Z,12.54
2018-09-16T03:15:43.890Z,12.44
2018-09-16T03:18:12.120Z,12.38
2018-09-16T03:20:40.160Z,12.32
2018-09-16T03:23:08.513Z,12.28
2018-09-16T03:25:37.611Z,12.26
2018-09-16T03:28:05.824Z,12.28
2018-09-16T03:30:33.994Z,12.23
2018-09-16T03:33:02.230Z,12.18
2018-09-16T03:35:30.269Z,12.19
2018-09-16T03:37:58.288Z,12.26
2018-09-16T03:40:26.400Z,12.26
2018-09-16T03:42:54.595Z,12.22
2018-09-16T03:45:23.714Z,12.29
2018-09-16T03:47:51.784Z,12.17
2018-09-16T03:50:20.180Z,12.07
2018-09-16T03:52:48.212Z,12.06
2018-09-16T03:55:18.466Z,12.00
2018-09-16T03:57:46.750Z,12.02
2018-09-16T04:00:15.015Z,11.96
2018-09-16T04:02:43.142Z,11.87
2018-09-16T04:05:11.235Z,11.91
2018-09-16T04:07:39.375Z,11.86
2018-09-16T04:10:07.498Z,12.00
2018-09-16T04:12:35.771Z,11.97
2018-09-16T04:15:04.453Z,11.87
2018-09-16T04:17:32.682Z,11.89
2018-09-16T04:20:00.984Z,11.96
2018-09-16T04:22:29.203Z,12.06
2018-09-16T04:24:57.602Z,12.03
2018-09-16T04:27:25.658Z,12.16
2018-09-16T04:29:53.705Z,12.17
2018-09-16T04:32:21.871Z,11.97
2018-09-16T04:34:50.047Z,11.91
2018-09-16T04:37:18.188Z,11.89
2018-09-16T04:39:46.223Z,12.03
2018-09-16T04:42:14.276Z,12.52
2018-09-16T04:44:42.532Z,13.29
2018-09-16T04:47:10.707Z,13.81
2018-09-16T04:49:38.816Z,13.99
2018-09-16T04:52:07.043Z,13.79
2018-09-16T04:54:35.241Z,13.87
2018-09-16T04:57:03.393Z,13.91
2018-09-16T04:59:32.055Z,14.52
2018-09-16T05:02:00.129Z,15.04
2018-09-16T05:04:28.307Z,15.66
2018-09-16T05:06:56.684Z,16.34
2018-09-16T05:09:24.810Z,16.87
2018-09-16T05:11:53.354Z,17.59
2018-09-16T05:14:21.513Z,17.03
2018-09-16T05:16:49.846Z,16.75
2018-09-16T05:19:18.149Z,17.12
2018-09-16T05:21:46.371Z,17.45
2018-09-16T05:24:14.438Z,18.02
2018-09-16T05:26:45.023Z,18.20
2018-09-16T05:29:13.468Z,18.13
2018-09-16T05:31:42.031Z,18.28
2018-09-16T05:34:10.359Z,18.18
2018-09-16T05:36:41.758Z,17.43
2018-09-16T05:39:11.418Z,17.48
2018-09-16T05:41:40.410Z,18.14
2018-09-16T05:44:09.193Z,18.33
2018-09-16T05:46:39.262Z,18.02
2018-09-16T05:49:07.986Z,17.63
2018-09-16T05:51:37.210Z,16.22
2018-09-16T05:54:06.047Z,16.69
2018-09-16T05:56:34.822Z,17.72
2018-09-16T05:59:03.773Z,18.28
2018-09-16T06:01:32.312Z,18.34
2018-09-16T06:04:01.042Z,18.42
2018-09-16T06:06:34.458Z,18.18
2018-09-16T06:09:03.213Z,18.19
2018-09-16T06:11:32.496Z,18.01
2018-09-16T06:14:01.254Z,18.43
2018-09-16T06:16:30.028Z,18.56
2018-09-16T06:18:58.662Z,18.09
2018-09-16T06:21:27.462Z,18.41
2018-09-16T06:23:57.051Z,19.09
2018-09-16T06:26:27.693Z,19.26
2018-09-16T06:28:59.549Z,19.13
2018-09-16T06:31:28.783Z,19.08
2018-09-16T06:33:57.730Z,18.78
2018-09-16T06:36:31.767Z,18.82
2018-09-16T06:39:03.756Z,18.65
2018-09-16T06:41:35.732Z,18.76
2018-09-16T06:44:06.941Z,19.49
2018-09-16T06:46:42.515Z,19.58
2018-09-16T06:49:11.608Z,19.89
2018-09-16T06:51:41.142Z,19.75
2018-09-16T06:54:09.982Z,19.82
2018-09-16T06:56:39.685Z,19.84
2018-09-16T06:59:08.364Z,19.64
2018-09-16T07:01:37.514Z,19.64
2018-09-16T07:04:06.385Z,20.03
2018-09-16T07:06:37.759Z,20.92
2018-09-16T07:09:11.925Z,21.23
2018-09-16T07:11:42.429Z,21.27
2018-09-16T07:14:17.343Z,21.22
2018-09-16T07:16:46.517Z,21.62
2018-09-16T07:19:15.383Z,21.89
2018-09-16T07:21:44.010Z,21.92
2018-09-16T07:24:12.635Z,21.50
2018-09-16T07:26:43.117Z,21.34
2018-09-16T07:29:11.508Z,21.68
2018-09-16T07:31:39.930Z,22.10
2018-09-16T07:34:08.450Z,22.15
2018-09-16T07:36:37.057Z,22.15
2018-09-16T07:39:08.282Z,22.22
2018-09-16T07:41:37.142Z,22.69
2018-09-16T07:44:07.336Z,22.39
2018-09-16T07:46:36.204Z,22.13
2018-09-16T07:49:06.270Z,21.98
2018-09-16T07:51:36.407Z,21.78
2018-09-16T07:54:06.857Z,22.27
2018-09-16T07:56:35.943Z,22.70
2018-09-16T07:59:04.430Z,23.10
2018-09-16T08:01:32.899Z,22.71
2018-09-16T08:04:01.654Z,22.96
2018-09-16T08:06:29.935Z,22.85
2018-09-16T08:08:58.373Z,23.04
2018-09-16T08:11:26.758Z,23.53
2018-09-16T08:13:55.543Z,23.78
2018-09-16T08:16:24.133Z,23.31
2018-09-16T08:18:54.315Z,23.03
2018-09-16T08:21:23.634Z,23.32
2018-09-16T08:23:55.443Z,22.96
2018-09-16T08:26:27.389Z,22.93
2018-09-16T08:28:57.886Z,23.96
2018-09-16T08:31:26.907Z,23.58
2018-09-16T08:33:55.607Z,23.51
2018-09-16T08:36:24.239Z,24.21
2018-09-16T08:38:53.834Z,24.04
2018-09-16T08:41:22.581Z,24.46
2018-09-16T08:43:51.086Z,24.04
2018-09-16T08:46:20.903Z,24.10
2018-09-16T08:48:49.710Z,24.65
2018-09-16T08:51:18.497Z,24.72
2018-09-16T08:53:49.113Z,24.29
2018-09-16T08:56:19.667Z,23.90
2018-09-16T08:58:48.157Z,23.61
2018-09-16T09:01:18.686Z,23.08
2018-09-16T09:03:47.413Z,22.87
2018-09-16T09:06:15.997Z,22.55
2018-09-16T09:08:44.437Z,23.37
2018-09-16T09:11:13.106Z,24.03
2018-09-16T09:13:42.040Z,24.84
2018-09-16T09:16:11.454Z,25.39
2018-09-16T09:18:41.384Z,25.03
2018-09-16T09:21:10.390Z,24.12
2018-09-16T09:23:42.892Z,23.54
2018-09-16T09:26:14.880Z,23.10
2018-09-16T09:28:44.058Z,22.80
2018-09-16T09:31:14.768Z,23.59
2018-09-16T09:33:44.777Z,24.26
2018-09-16T09:36:13.595Z,23.61
2018-09-16T09:38:42.404Z,24.44
2018-09-16T09:41:11.350Z,25.42
2018-09-16T09:43:40.246Z,26.08
2018-09-16T09:46:08.840Z,26.24
2018-09-16T09:48:37.483Z,25.11
2018-09-16T09:51:05.477Z,24.94
2018-09-16T09:53:33.821Z,24.32
2018-09-16T09:56:02.620Z,23.87
2018-09-16T09:58:31.202Z,24.59
2018-09-16T10:00:59.610Z,24.43
2018-09-16T10:03:28.090Z,24.55
2018-09-16T10:05:56.571Z,25.18
2018-09-16T10:08:31.525Z,24.04
2018-09-16T10:11:00.401Z,23.51
2018-09-16T10:13:28.816Z,23.37
2018-09-16T10:15:57.350Z,23.59
2018-09-16T10:18:25.702Z,24.35
2018-09-16T10:20:54.294Z,24.97
2018-09-16T10:23:22.513Z,24.26
2018-09-16T10:25:51.479Z,23.96
2018-09-16T10:28:20.238Z,23.52
2018-09-16T10:30:48.503Z,23.93
2018-09-16T10:33:16.759Z,24.79
2018-09-16T10:35:45.723Z,24.44
2018-09-16T10:38:15.307Z,24.22
2018-09-16T10:40:43.988Z,24.21
2018-09-16T10:43:13.582Z,24.44
2018-09-16T10:45:42.673Z,24.25
2018-09-16T10:48:11.630Z,24.85
2018-09-16T10:50:41.656Z,25.62
2018-09-16T10:53:10.779Z,25.83
2018-09-16T10:55:42.288Z,26.12
2018-09-16T10:58:15.060Z,26.29
2018-09-16T11:00:43.954Z,25.74
2018-09-16T11:03:14.137Z,26.57
2018-09-16T11:05:43.517Z,26.44
2018-09-16T11:08:12.483Z,26.02
2018-09-16T11:10:41.434Z,26.28
2018-09-16T11:13:11.079Z,25.53
2018-09-16T11:15:41.217Z,25.94
2018-09-16T11:18:10.355Z,26.06
2018-09-16T11:20:39.773Z,26.67
2018-09-16T11:23:10.061Z,26.58
2018-09-16T11:25:40.292Z,26.67
2018-09-16T11:28:09.333Z,26.31
2018-09-16T11:30:38.660Z,26.15
2018-09-16T11:33:08.472Z,26.42
2018-09-16T11:35:38.330Z,26.65
2018-09-16T11:38:08.475Z,26.75
2018-09-16T11:40:38.251Z,27.07
2018-09-16T11:43:08.910Z,26.07
2018-09-16T11:45:39.867Z,25.36
2018-09-16T11:48:09.328Z,24.81
2018-09-16T11:50:39.247Z,24.66
2018-09-16T11:53:08.433Z,24.60
2018-09-16T11:55:38.297Z,24.53
2018-09-16T11:58:08.082Z,24.86
2018-09-16T12:00:37.852Z,25.29
2018-09-16T12:03:07.675Z,25.84
2018-09-16T12:05:37.328Z,25.85
2018-09-16T12:08:07.256Z,26.31
2018-09-16T12:10:36.869Z,26.33
2018-09-16T12:13:06.695Z,25.39
2018-09-16T12:15:35.639Z,24.77
2018-09-16T12:18:05.212Z,24.46
2018-09-16T12:20:34.146Z,24.35
2018-09-16T12:23:03.999Z,24.06
2018-09-16T12:25:32.840Z,23.87
2018-09-16T12:28:02.536Z,24.07
2018-09-16T12:30:32.059Z,24.70
2018-09-16T12:33:01.794Z,25.16
2018-09-16T12:35:31.256Z,25.13
2018-09-16T12:38:00.380Z,24.46
2018-09-16T12:40:30.176Z,24.19
2018-09-16T12:42:58.963Z,23.83
2018-09-16T12:45:27.895Z,24.02
2018-09-16T12:47:58.911Z,24.34
2018-09-16T12:50:27.970Z,24.35
2018-09-16T12:52:56.797Z,24.71
2018-09-16T12:55:26.225Z,25.18
2018-09-16T12:57:55.875Z,25.29
2018-09-16T13:00:26.569Z,25.68
2018-09-16T13:03:00.186Z,25.14
2018-09-16T13:05:41.009Z,24.73
2018-09-16T13:08:16.854Z,24.97
2018-09-16T13:10:51.952Z,25.01
2018-09-16T13:13:29.534Z,25.24
2018-09-16T13:16:06.931Z,25.01
2018-09-16T13:18:46.057Z,24.70
2018-09-16T13:21:25.448Z,24.80
2018-09-16T13:24:00.339Z,24.84
2018-09-16T13:26:37.042Z,25.09
2018-09-16T13:29:09.132Z,25.36
2018-09-16T13:31:41.043Z,24.97
2018-09-16T13:34:14.955Z,25.00
2018-09-16T13:36:45.545Z,24.56
2018-09-16T13:39:15.707Z,24.09
2018-09-16T13:41:44.182Z,23.63
2018-09-16T13:44:13.253Z,23.51
2018-09-16T13:46:41.693Z,23.29
2018-09-16T13:49:09.946Z,23.09
2018-09-16T13:51:38.060Z,23.07
2018-09-16T13:54:07.807Z,22.98
2018-09-16T13:56:38.259Z,23.25
2018-09-16T13:59:07.126Z,23.46
2018-09-16T14:01:37.701Z,23.58
2018-09-16T14:04:08.056Z,23.80
2018-09-16T14:06:37.186Z,23.91
2018-09-16T14:09:08.420Z,24.05
2018-09-16T14:11:37.266Z,24.20
2018-09-16T14:14:06.026Z,24.14
2018-09-16T14:16:35.845Z,24.20
2018-09-16T14:19:05.012Z,24.32
2018-09-16T14:21:33.991Z,24.34
2018-09-16T14:24:02.715Z,24.30
2018-09-16T14:26:31.662Z,24.17
2018-09-16T14:29:00.378Z,23.82
2018-09-16T14:31:28.969Z,23.54
2018-09-16T14:33:57.610Z,23.36
2018-09-16T14:36:26.454Z,23.14
2018-09-16T14:38:55.317Z,23.12
2018-09-16T14:41:25.160Z,23.13
2018-09-16T14:43:54.688Z,23.32
2018-09-16T14:46:24.531Z,23.61
2018-09-16T14:48:53.810Z,23.86
2018-09-16T14:51:22.384Z,23.95
2018-09-16T14:53:51.222Z,23.90
2018-09-16T14:56:20.091Z,23.74
2018-09-16T14:58:48.898Z,23.64
2018-09-16T15:01:17.541Z,23.66
2018-09-16T15:03:46.507Z,23.65
2018-09-16T15:06:15.514Z,23.57
2018-09-16T15:08:45.987Z,23.43
2018-09-16T15:11:14.935Z,23.28
2018-09-16T15:13:43.523Z,23.12
2018-09-16T15:16:12.774Z,22.84
2018-09-16T15:18:41.818Z,22.59
2018-09-16T15:21:10.870Z,22.49
2018-09-16T15:23:39.968Z,22.41
2018-09-16T15:26:08.689Z,22.30
2018-09-16T15:28:37.701Z,22.18
2018-09-16T15:31:06.438Z,22.07
2018-09-16T15:33:35.364Z,22.05
2018-09-16T15:39:00.192Z,21.68
2018-09-16T15:41:28.671Z,21.71
2018-09-16T15:43:57.376Z,21.59
2018-09-16T15:46:25.819Z,21.58
2018-09-16T15:48:54.429Z,21.60
2018-09-16T15:51:22.978Z,21.64
2018-09-16T15:53:51.819Z,21.57
2018-09-16T15:56:20.368Z,21.55
2018-09-16T15:58:49.262Z,21.55
2018-09-16T16:01:17.871Z,21.63
2018-09-16T16:03:46.767Z,21.59
2018-09-16T16:06:15.684Z,21.56
2018-09-16T16:08:45.121Z,21.42
2018-09-16T16:11:13.922Z,21.43
2018-09-16T16:13:43.113Z,21.17
2018-09-16T16:16:11.751Z,20.90
2018-09-16T16:18:40.566Z,20.83
2018-09-16T16:21:09.322Z,20.75
2018-09-16T16:23:37.993Z,20.72
2018-09-16T16:26:06.680Z,20.59
2018-09-16T16:28:35.250Z,20.45
2018-09-16T16:31:03.871Z,20.39
2018-09-16T16:33:33.791Z,20.26
2018-09-16T16:36:02.676Z,20.14
2018-09-16T16:38:31.679Z,20.03
2018-09-16T16:41:00.256Z,19.92
2018-09-16T16:43:28.903Z,19.76
2018-09-16T16:45:57.554Z,19.60
2018-09-16T16:48:26.037Z,19.45
2018-09-16T16:50:54.789Z,19.36
2018-09-16T16:53:23.589Z,19.27
2018-09-16T16:55:52.314Z,19.14
2018-09-16T16:58:22.146Z,19.05
2018-09-16T17:00:50.939Z,18.99
2018-09-16T17:03:19.417Z,18.87
2018-09-16T17:05:48.198Z,18.79
2018-09-16T17:08:16.951Z,18.66
2018-09-16T17:10:45.795Z,18.62
2018-09-16T17:13:14.479Z,18.61
2018-09-16T17:15:43.304Z,18.44
2018-09-16T17:18:12.215Z,18.42
2018-09-16T17:20:41.765Z,18.27
2018-09-16T17:23:11.924Z,18.25
2018-09-16T17:25:42.055Z,18.19
2018-09-16T17:28:11.640Z,18.16
2018-09-16T17:30:40.588Z,18.15
2018-09-16T17:33:12.415Z,18.09
2018-09-16T17:35:43.027Z,18.20
2018-09-16T17:38:16.652Z,18.16
2018-09-16T17:40:45.938Z,18.02
2018-09-16T17:43:17.699Z,18.04
2018-09-16T17:45:46.775Z,18.00
2018-09-16T17:48:16.776Z,17.93
2018-09-16T17:50:50.386Z,17.91
2018-09-16T17:53:19.408Z,17.81
2018-09-16T17:55:48.273Z,17.60
2018-09-16T17:58:17.019Z,17.56
2018-09-16T18:00:45.766Z,17.40
2018-09-16T18:03:14.488Z,17.32
2018-09-16T18:05:43.041Z,17.16
2018-09-16T18:08:11.803Z,17.12
2018-09-16T18:10:40.451Z,17.09
2018-09-16T18:13:09.022Z,16.92
2018-09-16T18:15:37.789Z,16.79
2018-09-16T18:18:06.757Z,16.74
2018-09-16T18:20:35.527Z,16.68
2018-09-16T18:23:04.379Z,16.70
2018-09-16T18:25:33.039Z,16.59
2018-09-16T18:28:01.770Z,16.51
2018-09-16T18:30:30.609Z,16.40
2018-09-16T18:32:59.098Z,16.33
2018-09-16T18:35:27.913Z,16.22
2018-09-16T18:37:56.539Z,16.14
2018-09-16T18:40:24.869Z,16.05
2018-09-16T18:42:52.974Z,15.98
2018-09-16T18:45:21.181Z,15.90
2018-09-16T18:47:50.301Z,15.75
2018-09-16T18:50:18.570Z,15.78
2018-09-16T18:52:46.883Z,15.75
2018-09-16T18:55:15.037Z,15.71
2018-09-16T18:57:44.194Z,15.68
2018-09-16T19:00:12.529Z,15.61
2018-09-16T19:02:40.816Z,15.50
2018-09-16T19:05:08.912Z,15.43
2018-09-16T19:07:37.138Z,15.45
2018-09-16T19:10:05.331Z,15.39
2018-09-16T19:12:33.466Z,15.27
2018-09-16T19:15:01.631Z,15.21
2018-09-16T19:17:29.888Z,15.19
2018-09-16T19:19:58.063Z,15.20
2018-09-16T19:22:26.113Z,15.14
2018-09-16T19:24:57.028Z,15.09
2018-09-16T19:27:30.702Z,15.02
2018-09-16T19:30:01.748Z,14.97
2018-09-16T19:32:30.888Z,14.91
2018-09-16T19:34:58.985Z,14.88
2018-09-16T19:37:27.154Z,14.86
2018-09-16T19:39:55.487Z,14.77
2018-09-16T19:42:23.602Z,14.78
2018-09-16T19:44:51.735Z,14.75
2018-09-16T19:47:20.110Z,14.70
2018-09-16T19:49:48.207Z,14.66
2018-09-16T19:52:16.280Z,14.63
2018-09-16T19:54:44.412Z,14.58
2018-09-16T19:57:12.572Z,14.54
2018-09-16T19:59:40.716Z,14.53
2018-09-16T20:02:08.820Z,14.47
2018-09-16T20:04:36.950Z,14.52
2018-09-16T20:07:05.133Z,14.50
2018-09-16T20:09:33.279Z,14.47
2018-09-16T20:12:01.421Z,14.39
2018-09-16T20:14:29.601Z,14.41
2018-09-16T20:16:57.878Z,14.36
2018-09-16T20:19:26.035Z,14.28
2018-09-16T20:21:54.110Z,14.22
2018-09-16T20:24:22.175Z,14.21
2018-09-16T20:26:50.422Z,14.21
2018-09-16T20:29:18.591Z,14.14
2018-09-16T20:31:46.619Z,14.14
2018-09-16T20:34:14.811Z,14.09
2018-09-16T20:36:43.427Z,14.07
2018-09-16T20:39:12.148Z,14.02
2018-09-16T20:41:41.359Z,13.97
2018-09-16T20:44:09.468Z,13.98
2018-09-16T20:46:37.715Z,13.94
2018-09-16T20:49:06.079Z,13.93
2018-09-16T20:51:34.175Z,13.89
2018-09-16T20:54:02.314Z,13.86
2018-09-16T20:56:30.527Z,13.85
2018-09-16T20:58:58.647Z,13.84
2018-09-16T21:01:26.889Z,13.83
2018-09-16T21:03:55.301Z,13.82
2018-09-16T21:06:23.344Z,13.78
2018-09-16T21:08:51.496Z,13.74
2018-09-16T21:11:20.819Z,13.69
2018-09-16T21:13:48.992Z,13.63
2018-09-16T21:16:17.349Z,13.57
2018-09-16T21:18:46.081Z,13.54
2018-09-16T21:21:14.297Z,13.52
2018-09-16T21:23:42.366Z,13.47
2018-09-16T21:26:10.677Z,13.45
2018-09-16T21:28:38.876Z,13.52
2018-09-16T21:31:06.932Z,13.51
2018-09-16T21:33:34.995Z,13.54
2018-09-16T21:36:03.235Z,13.52
2018-09-16T21:38:31.477Z,13.50
2018-09-16T21:40:59.510Z,13.45
2018-09-16T21:43:29.063Z,13.45
2018-09-16T21:45:57.231Z,13.40
2018-09-16T21:48:25.596Z,13.40
2018-09-16T21:50:53.920Z,13.42
2018-09-16T21:53:21.939Z,13.42
2018-09-16T21:55:49.976Z,13.46
2018-09-16T21:58:18.101Z,13.44
2018-09-16T22:00:52.148Z,13.40
2018-09-16T22:03:20.648Z,13.32
2018-09-16T22:05:48.691Z,13.28
2018-09-16T22:08:16.896Z,13.22
2018-09-16T22:10:45.414Z,13.17
2018-09-16T22:13:13.511Z,13.21
2018-09-16T22:15:41.684Z,13.20
2018-09-16T22:18:09.760Z,13.15
2018-09-16T22:20:38.308Z,13.10
2018-09-16T22:23:06.347Z,13.05
2018-09-16T22:25:34.454Z,13.01
2018-09-16T22:28:02.866Z,12.95
2018-09-16T22:30:30.840Z,12.91
2018-09-16T22:32:58.890Z,12.89
2018-09-16T22:35:27.091Z,12.91
2018-09-16T22:37:55.229Z,12.86
2018-09-16T22:40:23.344Z,12.92
2018-09-16T22:42:51.817Z,12.94
2018-09-16T22:45:19.833Z,12.86
2018-09-16T22:47:47.953Z,12.81
2018-09-16T22:50:15.986Z,12.79
2018-09-16T22:52:44.027Z,12.74
2018-09-16T22:55:12.128Z,12.74
2018-09-16T22:57:40.254Z,12.74
2018-09-16T23:00:12.062Z,12.67
2018-09-16T23:02:40.177Z,12.64
2018-09-16T23:05:08.174Z,12.65
2018-09-16T23:07:36.242Z,12.64
2018-09-16T23:10:04.232Z,12.61
2018-09-16T23:12:32.242Z,12.59
2018-09-16T23:15:00.397Z,12.52
2018-09-16T23:17:28.630Z,12.50
2018-09-16T23:19:56.803Z,12.47
2018-09-16T23:22:24.927Z,12.45
2018-09-16T23:24:52.921Z,12.37
2018-09-16T23:27:21.057Z,12.35
2018-09-16T23:29:49.116Z,12.26
2018-09-16T23:32:17.092Z,12.21
2018-09-16T23:34:45.149Z,12.14
2018-09-16T23:37:13.152Z,12.10
2018-09-16T23:39:41.138Z,12.05
2018-09-16T23:42:09.140Z,12.04
2018-09-16T23:44:37.193Z,12.01
2018-09-16T23:47:05.347Z,11.95
2018-09-16T23:49:33.329Z,11.88
2018-09-16T23:52:01.379Z,11.84
2018-09-16T23:54:29.436Z,11.84
2018-09-16T23:56:57.574Z,11.79
2018-09-16T23:59:25.649Z,11.76
